createdAt,value
2018-08-21T00:01:55.436Z,1013.54
2018-08-21T00:11:55.551Z,1013.59
2018-08-21T00:21:55.479Z,1013.59
2018-08-21T00:31:55.517Z,1013.52
2018-08-21T00:41:55.561Z,1013.48
2018-08-21T00:51:55.451Z,1013.47
2018-08-21T01:01:55.544Z,1013.57
2018-08-21T01:11:55.488Z,1013.59
2018-08-21T01:21:57.828Z,1013.67
2018-08-21T01:32:06.683Z,1013.63
2018-08-21T01:41:55.433Z,1013.62
2018-08-21T01:51:55.521Z,1013.6
2018-08-21T02:01:55.490Z,1013.61
2018-08-21T02:11:55.441Z,1013.63
2018-08-21T02:21:55.499Z,1013.58
2018-08-21T02:31:55.485Z,1013.55
2018-08-21T02:41:55.527Z,1013.55
2018-08-21T02:51:55.476Z,1013.48
2018-08-21T03:01:55.462Z,1013.39
2018-08-21T03:11:55.514Z,1013.35
2018-08-21T03:21:55.490Z,1013.32
2018-08-21T03:31:55.543Z,1013.3
2018-08-21T03:41:55.502Z,1013.39
2018-08-21T03:51:55.462Z,1013.41
2018-08-21T04:01:55.514Z,1013.44
2018-08-21T04:11:55.468Z,1013.5
2018-08-21T04:21:55.603Z,1013.54
2018-08-21T04:31:55.500Z,1013.61
2018-08-21T04:41:55.485Z,1013.66
2018-08-21T04:51:55.524Z,1013.7
2018-08-21T05:01:55.489Z,1013.8
2018-08-21T05:11:55.492Z,1013.76
2018-08-21T05:21:55.527Z,1013.76
2018-08-21T05:31:55.519Z,1013.84
2018-08-21T05:41:55.571Z,1013.91
2018-08-21T05:51:55.578Z,1013.98
2018-08-21T06:01:55.528Z,1013.98
2018-08-21T06:11:55.502Z,1014.06
2018-08-21T06:21:55.511Z,1014.1
2018-08-21T06:31:55.557Z,1014.13
2018-08-21T06:41:55.512Z,1014.24
2018-08-21T06:51:55.493Z,1014.2
2018-08-21T07:01:55.508Z,1014.3
2018-08-21T07:11:55.508Z,1014.34
2018-08-21T07:21:55.517Z,1014.35
2018-08-21T07:31:55.512Z,1014.41
2018-08-21T07:41:55.543Z,1014.42
2018-08-21T07:51:55.528Z,1014.44
2018-08-21T08:01:55.532Z,1014.48
2018-08-21T08:11:55.513Z,1014.49
2018-08-21T08:21:55.536Z,1014.47
2018-08-21T08:31:55.554Z,1014.43
2018-08-21T08:41:55.609Z,1014.55
2018-08-21T08:51:55.529Z,1014.51
2018-08-21T09:01:55.530Z,1014.47
2018-08-21T09:11:55.540Z,1014.36
2018-08-21T09:21:55.553Z,1014.35
2018-08-21T09:31:55.553Z,1014.26
2018-08-21T09:41:55.578Z,1014.26
2018-08-21T09:51:55.549Z,1014.28
2018-08-21T10:01:55.566Z,1014.19
2018-08-21T10:11:55.568Z,1014.22
2018-08-21T10:21:55.560Z,1014.19
2018-08-21T10:31:55.576Z,1014.27
2018-08-21T10:41:55.574Z,1014.12
2018-08-21T10:51:55.582Z,1014.08
2018-08-21T11:01:55.563Z,1014.05
2018-08-21T11:11:55.614Z,1013.94
2018-08-21T11:21:55.570Z,1013.78
2018-08-21T11:31:55.587Z,1013.73
2018-08-21T11:41:55.587Z,1013.68
2018-08-21T11:51:55.587Z,1013.6
2018-08-21T12:01:55.611Z,1013.53
2018-08-21T12:11:55.603Z,1013.32
2018-08-21T12:21:55.606Z,1013.2
2018-08-21T12:31:55.604Z,1013.23
2018-08-21T12:41:55.603Z,1013.15
2018-08-21T12:51:55.618Z,1013.13
2018-08-21T13:01:55.612Z,1013.09
2018-08-21T13:11:55.673Z,1013.04
2018-08-21T13:22:00.012Z,1012.92
2018-08-21T13:31:55.618Z,1012.92
2018-08-21T13:41:55.645Z,1012.84
2018-08-21T13:51:55.612Z,1012.78
2018-08-21T14:01:55.687Z,1012.71
2018-08-21T14:11:55.683Z,1012.73
2018-08-21T14:21:55.667Z,1012.7
2018-08-21T14:31:55.636Z,1012.66
2018-08-21T14:41:55.747Z,1012.61
2018-08-21T14:51:55.658Z,1012.57
2018-08-21T15:01:55.650Z,1012.49
2018-08-21T15:11:55.733Z,1012.43
2018-08-21T15:21:55.684Z,1012.32
2018-08-21T15:31:55.734Z,1012.26
2018-08-21T15:41:55.657Z,1012.24
2018-08-21T15:51:55.663Z,1012.2
2018-08-21T16:01:55.749Z,1012.08
2018-08-21T16:11:55.739Z,1012.05
2018-08-21T16:21:55.677Z,1011.96
2018-08-21T16:31:55.727Z,1011.84
2018-08-21T16:41:55.746Z,1011.81
2018-08-21T16:51:55.769Z,1011.8
2018-08-21T17:01:55.812Z,1011.78
2018-08-21T17:11:55.671Z,1011.77
2018-08-21T17:21:55.758Z,1011.74
2018-08-21T17:31:55.719Z,1011.65
2018-08-21T17:41:55.768Z,1011.69
2018-08-21T17:51:55.763Z,1011.62
2018-08-21T18:01:55.684Z,1011.66
2018-08-21T18:11:55.760Z,1011.61
2018-08-21T18:21:55.710Z,1011.6
2018-08-21T18:31:55.794Z,1011.61
2018-08-21T18:41:55.741Z,1011.6
2018-08-21T18:51:55.697Z,1011.69
2018-08-21T19:01:55.757Z,1011.65
2018-08-21T19:11:55.722Z,1011.78
2018-08-21T19:21:55.788Z,1011.77
2018-08-21T19:31:55.776Z,1011.86
2018-08-21T19:41:55.702Z,1011.89
2018-08-21T19:51:55.822Z,1011.89
2018-08-21T20:01:55.756Z,1011.77
2018-08-21T20:11:55.739Z,1011.78
2018-08-21T20:21:55.809Z,1011.87
2018-08-21T20:31:55.774Z,1011.86
2018-08-21T20:41:55.723Z,1011.93
2018-08-21T20:51:55.777Z,1011.89
2018-08-21T21:01:55.729Z,1011.94
2018-08-21T21:11:55.814Z,1011.87
2018-08-21T21:21:55.786Z,1011.75
2018-08-21T21:31:55.764Z,1011.87
2018-08-21T21:41:55.818Z,1011.88
2018-08-21T21:51:55.708Z,1011.94
2018-08-21T22:01:55.821Z,1011.89
2018-08-21T22:11:55.852Z,1011.96
2018-08-21T22:21:55.807Z,1012.04
2018-08-21T22:31:55.761Z,1012.04
2018-08-21T22:41:55.739Z,1011.99
2018-08-21T22:51:55.846Z,1012.04
2018-08-21T23:01:55.805Z,1012
2018-08-21T23:11:55.751Z,1011.92
2018-08-21T23:21:55.834Z,1011.84
2018-08-21T23:31:55.829Z,1011.87
2018-08-21T23:41:55.760Z,1011.75
2018-08-21T23:51:55.829Z,1011.77
